Huvudsida
METAR-TAF:

METAR-TAF

Flygplatser :

Dohas internationella flygplats

Doha, Qatar

latitud: 25-15-40N, longitud: 051-33-54E, höjd: 11 m

Aktuellt väderrapport

Denna rapport gjordes för 43 minuter sedan, klockan 19:00 UTC
Vind 9 kt från nord/nordväst
Temperatur 18°C
Fuktighet 73%
Tryck 1015 hPa
Sikt: 9000 m

METAR: OTBD 281900Z 34009KT 9000 NSC 18/13 Q1015 NOSIG

Tid: 22:43 (19:43 UTC)

Väderprognos

Denna rapport gjordes för 2 timmar och 34 minuter sedan, klockan 17:09 UTC
Prognos gäller från 28 kl. 18 UTC till 29 kl. 24 UTC
Vind 8 kt från nordväst
Sikt 10 km eller mer
Inga moln under 1 500 m eller inga cumulonimbus
Blir
från 29 kl. 07 UTC till 29 kl. 09 UTC
Vind 8 kt från nordost

TAF: OTBD 281709Z 2818/2924 31008KT CAVOK BECMG 2907/2909 05008KT

Aktuella väderrapporter och prognoser från 4000 flygplatser (METAR- och TAF-rapporter).

De tillgängliga stationerna syns som gula och röda prickar på kartan.

För musen över prickarna för att se namnen på stationerna.

Klicka sedan för att få väderrapporter och prognoser.

För att ändra kartan: Klicka på de gröna knapparna med ett svart kors på för att zooma in; den gröna knappen med ett streck på för att zooma ut; eller på de gröna pilarna för angränsande kartor.


METAR-TAF: